createdAt,value
2023-02-24T00:00:14.561Z,1004.50
2023-02-24T00:01:14.570Z,1004.47
2023-02-24T00:02:14.628Z,1004.45
2023-02-24T00:03:14.615Z,1004.45
2023-02-24T00:04:14.608Z,1004.43
2023-02-24T00:05:14.615Z,1004.41
2023-02-24T00:06:14.627Z,1004.42
2023-02-24T00:07:14.637Z,1004.41
2023-02-24T00:08:14.648Z,1004.38
2023-02-24T00:09:14.665Z,1004.38
2023-02-24T00:10:14.671Z,1004.35
2023-02-24T00:11:14.681Z,1004.36
2023-02-24T00:12:14.694Z,1004.35
2023-02-24T00:13:14.707Z,1004.31
2023-02-24T00:14:14.718Z,1004.34
2023-02-24T00:15:14.733Z,1004.30
2023-02-24T00:16:14.807Z,1004.37
2023-02-24T00:17:14.941Z,1004.34
2023-02-24T00:18:14.764Z,1004.32
2023-02-24T00:19:14.773Z,1004.32
2023-02-24T00:20:14.790Z,1004.33
2023-02-24T00:21:14.799Z,1004.34
2023-02-24T00:22:14.815Z,1004.29
2023-02-24T00:23:14.819Z,1004.32
2023-02-24T00:24:14.831Z,1004.31
2023-02-24T00:25:14.841Z,1004.36
2023-02-24T00:26:14.856Z,1004.32
2023-02-24T00:27:14.868Z,1004.27
2023-02-24T00:28:14.880Z,1004.27
2023-02-24T00:29:14.891Z,1004.27
2023-02-24T00:30:14.915Z,1004.25
2023-02-24T00:31:15.003Z,1004.27
2023-02-24T00:32:15.142Z,1004.21
2023-02-24T00:33:14.951Z,1004.20
2023-02-24T00:34:14.960Z,1004.21
2023-02-24T00:35:14.964Z,1004.23
2023-02-24T00:36:14.977Z,1004.16
2023-02-24T00:37:14.987Z,1004.15
2023-02-24T00:38:15.014Z,1004.15
2023-02-24T00:39:15.007Z,1004.15
2023-02-24T00:40:15.022Z,1004.12
2023-02-24T00:41:15.035Z,1004.10
2023-02-24T00:42:15.064Z,1004.10
2023-02-24T00:43:15.058Z,1004.15
2023-02-24T00:44:15.081Z,1004.13
2023-02-24T00:45:15.083Z,1004.12
2023-02-24T00:46:15.170Z,1004.12
2023-02-24T00:47:15.104Z,1004.14
2023-02-24T00:48:15.117Z,1004.14
2023-02-24T00:49:15.127Z,1004.14
2023-02-24T00:50:15.141Z,1004.20
2023-02-24T00:51:15.155Z,1004.16
2023-02-24T00:52:15.161Z,1004.16
2023-02-24T00:53:15.177Z,1004.15
2023-02-24T00:54:15.196Z,1004.13
2023-02-24T00:55:15.237Z,1004.13
2023-02-24T00:56:15.215Z,1004.19
2023-02-24T00:57:15.221Z,1004.19
2023-02-24T00:58:15.233Z,1004.13
2023-02-24T00:59:15.250Z,1004.07
2023-02-24T01:00:15.299Z,1004.16
2023-02-24T01:01:15.342Z,1004.17
2023-02-24T01:02:15.281Z,1004.19
2023-02-24T01:03:15.287Z,1004.36
2023-02-24T01:04:15.358Z,1004.14
2023-02-24T01:05:15.305Z,1004.18
2023-02-24T01:06:15.318Z,1004.12
2023-02-24T01:07:15.333Z,1004.19
2023-02-24T01:08:15.339Z,1004.16
2023-02-24T01:09:15.351Z,1004.16
2023-02-24T01:10:15.361Z,1004.23
2023-02-24T01:11:15.372Z,1004.21
2023-02-24T01:12:15.446Z,1004.15
2023-02-24T01:13:15.398Z,1004.24
2023-02-24T01:14:15.403Z,1004.18
2023-02-24T01:15:15.417Z,1004.16
2023-02-24T01:16:15.491Z,1004.21
2023-02-24T01:17:15.433Z,1004.16
2023-02-24T01:18:15.444Z,1004.14
2023-02-24T01:19:15.877Z,1004.17
2023-02-24T01:20:15.466Z,1004.19
2023-02-24T01:21:15.474Z,1004.20
2023-02-24T01:22:15.498Z,1004.09
2023-02-24T01:23:15.504Z,1004.12
2023-02-24T01:24:15.515Z,1004.10
2023-02-24T01:25:15.529Z,1004.14
2023-02-24T01:26:15.528Z,1004.15
2023-02-24T01:27:15.541Z,1004.17
2023-02-24T01:28:15.550Z,1004.11
2023-02-24T01:29:15.560Z,1004.14
2023-02-24T01:30:15.594Z,1004.08
2023-02-24T01:31:15.679Z,1004.11
2023-02-24T01:32:15.826Z,1004.13
2023-02-24T01:33:15.670Z,1004.06
2023-02-24T01:34:15.610Z,1004.08
2023-02-24T01:35:15.664Z,1004.07
2023-02-24T01:36:15.633Z,1004.08
2023-02-24T01:37:15.640Z,1004.08
2023-02-24T01:38:15.657Z,1004.05
2023-02-24T01:39:15.663Z,1004.04
2023-02-24T01:40:15.692Z,1004.06
2023-02-24T01:41:15.694Z,1004.06
2023-02-24T01:42:15.716Z,1004.06
2023-02-24T01:43:15.711Z,1004.03
2023-02-24T01:44:15.730Z,1004.05
2023-02-24T01:45:15.737Z,1004.04
2023-02-24T01:46:15.796Z,1004.00
2023-02-24T01:47:15.761Z,1003.97
2023-02-24T01:48:15.762Z,1003.93
2023-02-24T01:49:15.769Z,1003.98
2023-02-24T01:50:15.780Z,1003.92
2023-02-24T01:51:15.786Z,1003.94
2023-02-24T01:52:15.804Z,1003.89
2023-02-24T01:53:15.814Z,1003.87
2023-02-24T01:54:15.829Z,1003.87
2023-02-24T01:55:15.842Z,1003.88
2023-02-24T01:56:15.838Z,1003.91
2023-02-24T01:57:15.848Z,1003.90
2023-02-24T01:58:15.858Z,1003.92
2023-02-24T01:59:15.883Z,1003.95
2023-02-24T02:00:15.907Z,1003.85
2023-02-24T02:01:15.920Z,1003.89
2023-02-24T02:02:16.007Z,1003.87
2023-02-24T02:03:15.918Z,1003.84
2023-02-24T02:04:15.918Z,1003.81
2023-02-24T02:05:15.936Z,1003.82
2023-02-24T02:06:15.937Z,1003.80
2023-02-24T02:07:15.949Z,1003.79
2023-02-24T02:08:15.957Z,1003.80
2023-02-24T02:09:15.971Z,1003.83
2023-02-24T02:10:15.983Z,1003.81
2023-02-24T02:11:15.986Z,1003.79
2023-02-24T02:12:15.996Z,1003.83
2023-02-24T02:13:16.010Z,1003.82
2023-02-24T02:14:16.018Z,1003.81
2023-02-24T02:15:16.025Z,1003.83
2023-02-24T02:16:16.063Z,1003.80
2023-02-24T02:17:16.048Z,1003.86
2023-02-24T02:18:16.056Z,1003.81
2023-02-24T02:19:16.071Z,1003.78
2023-02-24T02:20:16.192Z,1003.81
2023-02-24T02:21:16.086Z,1003.79
2023-02-24T02:22:16.096Z,1003.79
2023-02-24T02:23:16.107Z,1003.77
2023-02-24T02:24:16.115Z,1003.80
2023-02-24T02:25:16.125Z,1003.77
2023-02-24T02:26:16.134Z,1003.73
2023-02-24T02:27:16.151Z,1003.74
2023-02-24T02:28:16.153Z,1003.64
2023-02-24T02:29:16.169Z,1003.69
2023-02-24T02:30:16.178Z,1003.71
2023-02-24T02:31:16.318Z,1003.66
2023-02-24T02:32:16.268Z,1003.64
2023-02-24T02:33:16.202Z,1003.71
2023-02-24T02:34:16.220Z,1003.67
2023-02-24T02:35:16.222Z,1003.71
2023-02-24T02:36:16.230Z,1003.66
2023-02-24T02:37:16.245Z,1003.70
2023-02-24T02:38:16.251Z,1003.70
2023-02-24T02:39:16.262Z,1003.69
2023-02-24T02:40:16.276Z,1003.72
2023-02-24T02:41:16.283Z,1003.66
2023-02-24T02:42:16.294Z,1003.66
2023-02-24T02:43:16.297Z,1003.68
2023-02-24T02:44:16.309Z,1003.64
2023-02-24T02:45:16.315Z,1003.62
2023-02-24T02:46:16.351Z,1003.66
2023-02-24T02:47:16.363Z,1003.64
2023-02-24T02:48:16.357Z,1003.66
2023-02-24T02:49:16.352Z,1003.64
2023-02-24T02:50:16.364Z,1003.63
2023-02-24T02:51:16.368Z,1003.69
2023-02-24T02:52:16.378Z,1003.64
2023-02-24T02:53:16.393Z,1003.65
2023-02-24T02:54:16.398Z,1003.64
2023-02-24T02:55:16.404Z,1003.65
2023-02-24T02:56:16.414Z,1003.67
2023-02-24T02:57:16.423Z,1003.70
2023-02-24T02:58:16.447Z,1003.68
2023-02-24T02:59:16.441Z,1003.68
2023-02-24T03:00:16.456Z,1003.62
2023-02-24T03:01:16.537Z,1003.61
2023-02-24T03:02:16.474Z,1003.56
2023-02-24T03:03:16.481Z,1003.58
2023-02-24T03:04:16.491Z,1003.65
2023-02-24T03:05:16.499Z,1003.60
2023-02-24T03:06:16.509Z,1003.59
2023-02-24T03:07:16.516Z,1003.59
2023-02-24T03:08:16.531Z,1003.63
2023-02-24T03:09:16.556Z,1003.60
2023-02-24T03:10:16.547Z,1003.63
2023-02-24T03:11:16.556Z,1003.62
2023-02-24T03:12:16.561Z,1003.61
2023-02-24T03:13:16.576Z,1003.62
2023-02-24T03:14:16.582Z,1003.62
2023-02-24T03:15:16.588Z,1003.59
2023-02-24T03:16:16.625Z,1003.60
2023-02-24T03:17:16.612Z,1003.58
2023-02-24T03:18:16.622Z,1003.54
2023-02-24T03:19:16.626Z,1003.50
2023-02-24T03:20:16.642Z,1003.47
2023-02-24T03:21:16.673Z,1003.52
2023-02-24T03:22:16.660Z,1003.51
2023-02-24T03:23:16.693Z,1003.50
2023-02-24T03:24:16.672Z,1003.49
2023-02-24T03:25:16.686Z,1003.49
2023-02-24T03:26:16.693Z,1003.45
2023-02-24T03:27:16.703Z,1003.44
2023-02-24T03:28:16.711Z,1003.45
2023-02-24T03:29:16.719Z,1003.44
2023-02-24T03:30:16.752Z,1003.43
2023-02-24T03:31:16.804Z,1003.41
2023-02-24T03:32:16.875Z,1003.34
2023-02-24T03:33:16.757Z,1003.35
2023-02-24T03:34:16.768Z,1003.33
2023-02-24T03:35:16.775Z,1003.34
2023-02-24T03:36:16.788Z,1003.36
2023-02-24T03:37:16.801Z,1003.33
2023-02-24T03:38:16.800Z,1003.32
2023-02-24T03:39:16.813Z,1003.34
2023-02-24T03:40:16.829Z,1003.28
2023-02-24T03:41:16.838Z,1003.26
2023-02-24T03:42:16.865Z,1003.24
2023-02-24T03:43:16.886Z,1003.23
2023-02-24T03:44:16.861Z,1003.22
2023-02-24T03:45:16.885Z,1003.24
2023-02-24T03:46:16.972Z,1003.21
2023-02-24T03:47:16.901Z,1003.25
2023-02-24T03:48:16.894Z,1003.22
2023-02-24T03:49:17.015Z,1003.17
2023-02-24T03:50:16.921Z,1003.23
2023-02-24T03:51:16.925Z,1003.17
2023-02-24T03:52:16.935Z,1003.13
2023-02-24T03:53:16.942Z,1003.17
2023-02-24T03:54:16.951Z,1003.13
2023-02-24T03:55:16.969Z,1003.16
2023-02-24T03:56:16.972Z,1003.11
2023-02-24T03:57:16.979Z,1003.11
2023-02-24T03:58:16.992Z,1003.12
2023-02-24T03:59:16.998Z,1003.10
2023-02-24T04:00:17.023Z,1003.02
2023-02-24T04:01:17.015Z,1003.06
2023-02-24T04:02:17.090Z,1003.01
2023-02-24T04:03:17.034Z,1003.02
2023-02-24T04:04:17.055Z,1002.98
2023-02-24T04:05:17.053Z,1003.02
2023-02-24T04:06:17.064Z,1002.99
2023-02-24T04:07:17.070Z,1002.97
2023-02-24T04:08:17.083Z,1002.98
2023-02-24T04:09:17.093Z,1003.02
2023-02-24T04:10:17.102Z,1002.96
2023-02-24T04:11:17.110Z,1003.00
2023-02-24T04:12:17.200Z,1002.95
2023-02-24T04:13:17.126Z,1002.98
2023-02-24T04:14:17.135Z,1002.92
2023-02-24T04:15:17.147Z,1002.94
2023-02-24T04:16:17.156Z,1002.90
2023-02-24T04:17:17.168Z,1002.89
2023-02-24T04:18:17.173Z,1002.97
2023-02-24T04:19:17.183Z,1002.91
2023-02-24T04:20:17.192Z,1002.86
2023-02-24T04:21:17.217Z,1002.90
2023-02-24T04:22:17.224Z,1002.93
2023-02-24T04:23:17.219Z,1002.91
2023-02-24T04:24:17.234Z,1002.87
2023-02-24T04:25:17.239Z,1002.83
2023-02-24T04:26:17.248Z,1002.83
2023-02-24T04:27:17.261Z,1002.78
2023-02-24T04:28:17.276Z,1002.82
2023-02-24T04:29:17.290Z,1002.83
2023-02-24T04:30:17.297Z,1002.85
2023-02-24T04:31:17.395Z,1002.80
2023-02-24T04:32:17.458Z,1002.80
2023-02-24T04:33:17.317Z,1002.75
2023-02-24T04:34:17.326Z,1002.74
2023-02-24T04:35:17.333Z,1002.74
2023-02-24T04:36:17.342Z,1002.76
2023-02-24T04:37:17.352Z,1002.69
2023-02-24T04:38:17.359Z,1002.69
2023-02-24T04:39:17.371Z,1002.72
2023-02-24T04:40:17.380Z,1002.69
2023-02-24T04:41:17.392Z,1002.66
2023-02-24T04:42:17.399Z,1002.67
2023-02-24T04:43:17.426Z,1002.69
2023-02-24T04:44:17.417Z,1002.64
2023-02-24T04:45:17.429Z,1002.64
2023-02-24T04:46:17.520Z,1002.68
2023-02-24T04:47:17.467Z,1002.66
2023-02-24T04:48:17.454Z,1002.66
2023-02-24T04:49:17.466Z,1002.65
2023-02-24T04:50:17.473Z,1002.61
2023-02-24T04:51:17.482Z,1002.60
2023-02-24T04:52:17.494Z,1002.61
2023-02-24T04:53:17.499Z,1002.61
2023-02-24T04:54:17.640Z,1002.56
2023-02-24T04:55:17.527Z,1002.54
2023-02-24T04:56:17.558Z,1002.51
2023-02-24T04:57:17.539Z,1002.49
2023-02-24T04:58:17.563Z,1002.49
2023-02-24T04:59:17.557Z,1002.40
2023-02-24T05:00:17.575Z,1002.43
2023-02-24T05:01:17.581Z,1002.38
2023-02-24T05:02:20.018Z,1002.34
2023-02-24T05:03:17.593Z,1002.35
2023-02-24T05:04:17.703Z,1002.33
2023-02-24T05:05:17.634Z,1002.37
2023-02-24T05:06:17.631Z,1002.35
2023-02-24T05:07:17.635Z,1002.40
2023-02-24T05:08:17.643Z,1002.38
2023-02-24T05:09:17.655Z,1002.36
2023-02-24T05:10:17.661Z,1002.37
2023-02-24T05:11:17.674Z,1002.31
2023-02-24T05:12:17.682Z,1002.35
2023-02-24T05:13:17.696Z,1002.34
2023-02-24T05:14:17.718Z,1002.31
2023-02-24T05:15:17.707Z,1002.29
2023-02-24T05:16:17.776Z,1002.31
2023-02-24T05:17:17.731Z,1002.30
2023-02-24T05:18:17.735Z,1002.26
2023-02-24T05:19:17.754Z,1002.25
2023-02-24T05:20:17.753Z,1002.26
2023-02-24T05:21:17.765Z,1002.19
2023-02-24T05:22:17.784Z,1002.21
2023-02-24T05:23:17.786Z,1002.21
2023-02-24T05:24:17.795Z,1002.20
2023-02-24T05:25:17.812Z,1002.22
2023-02-24T05:26:17.828Z,1002.22
2023-02-24T05:27:17.836Z,1002.17
2023-02-24T05:28:17.833Z,1002.18
2023-02-24T05:29:17.838Z,1002.17
2023-02-24T05:30:17.851Z,1002.20
2023-02-24T05:31:17.970Z,1002.16
2023-02-24T05:32:17.991Z,1002.14
2023-02-24T05:33:17.878Z,1002.07
2023-02-24T05:34:17.886Z,1002.12
2023-02-24T05:35:17.896Z,1002.13
2023-02-24T05:36:17.904Z,1002.06
2023-02-24T05:37:17.915Z,1002.04
2023-02-24T05:38:17.923Z,1002.09
2023-02-24T05:39:17.939Z,1002.07
2023-02-24T05:40:17.942Z,1002.08
2023-02-24T05:41:18.123Z,1002.05
2023-02-24T05:42:17.957Z,1002.03
2023-02-24T05:43:17.965Z,1002.01
2023-02-24T05:44:17.976Z,1002.00
2023-02-24T05:45:17.984Z,1001.96
2023-02-24T05:46:18.011Z,1002.00
2023-02-24T05:47:18.000Z,1001.94
2023-02-24T05:48:18.026Z,1001.98
2023-02-24T05:49:18.022Z,1001.96
2023-02-24T05:50:18.033Z,1001.98
2023-02-24T05:51:18.165Z,1001.92
2023-02-24T05:52:18.046Z,1001.96
2023-02-24T05:53:18.059Z,1001.93
2023-02-24T05:54:18.069Z,1001.93
2023-02-24T05:55:18.076Z,1001.85
2023-02-24T05:56:18.084Z,1001.90
2023-02-24T05:57:18.094Z,1001.86
2023-02-24T05:58:18.105Z,1001.89
2023-02-24T05:59:18.135Z,1001.88
2023-02-24T06:00:18.121Z,1001.86
2023-02-24T06:01:18.319Z,1001.86
2023-02-24T06:02:18.193Z,1001.84
2023-02-24T06:03:18.172Z,1001.83
2023-02-24T06:04:18.158Z,1001.84
2023-02-24T06:05:20.004Z,1001.80
2023-02-24T06:06:18.180Z,1001.83
2023-02-24T06:07:18.186Z,1001.80
2023-02-24T06:08:18.195Z,1001.77
2023-02-24T06:09:18.204Z,1001.77
2023-02-24T06:10:18.213Z,1001.74
2023-02-24T06:11:18.340Z,1001.74
2023-02-24T06:12:18.286Z,1001.72
2023-02-24T06:13:18.243Z,1001.73
2023-02-24T06:14:18.252Z,1001.74
2023-02-24T06:15:18.261Z,1001.72
2023-02-24T06:16:18.295Z,1001.71
2023-02-24T06:17:18.291Z,1001.69
2023-02-24T06:18:18.289Z,1001.67
2023-02-24T06:19:18.296Z,1001.74
2023-02-24T06:20:18.306Z,1001.69
2023-02-24T06:21:18.375Z,1001.68
2023-02-24T06:22:18.329Z,1001.67
2023-02-24T06:23:18.334Z,1001.71
2023-02-24T06:24:18.373Z,1001.63
2023-02-24T06:25:18.362Z,1001.70
2023-02-24T06:26:18.364Z,1001.62
2023-02-24T06:27:18.370Z,1001.66
2023-02-24T06:28:18.384Z,1001.63
2023-02-24T06:29:18.394Z,1001.64
2023-02-24T06:30:18.405Z,1001.64
2023-02-24T06:31:18.623Z,1001.59
2023-02-24T06:32:18.595Z,1001.65
2023-02-24T06:33:18.432Z,1001.63
2023-02-24T06:34:18.597Z,1001.59
2023-02-24T06:35:18.455Z,1001.59
2023-02-24T06:36:18.462Z,1001.57
2023-02-24T06:37:18.480Z,1001.55
2023-02-24T06:38:18.488Z,1001.46
2023-02-24T06:39:18.491Z,1001.52
2023-02-24T06:40:18.509Z,1001.51
2023-02-24T06:41:18.641Z,1001.54
2023-02-24T06:42:18.524Z,1001.48
2023-02-24T06:43:18.524Z,1001.48
2023-02-24T06:44:18.535Z,1001.51
2023-02-24T06:45:18.561Z,1001.43
2023-02-24T06:46:18.616Z,1001.42
2023-02-24T06:47:18.570Z,1001.43
2023-02-24T06:48:18.577Z,1001.40
2023-02-24T06:49:18.583Z,1001.46
2023-02-24T06:50:18.593Z,1001.35
2023-02-24T06:51:18.767Z,1001.37
2023-02-24T06:52:18.891Z,1001.43
2023-02-24T06:53:18.625Z,1001.38
2023-02-24T06:54:18.628Z,1001.37
2023-02-24T06:55:18.638Z,1001.34
2023-02-24T06:56:18.647Z,1001.35
2023-02-24T06:57:18.662Z,1001.33
2023-02-24T06:58:18.669Z,1001.38
2023-02-24T06:59:18.678Z,1001.37
2023-02-24T07:00:18.687Z,1001.28
2023-02-24T07:01:18.898Z,1001.31
2023-02-24T07:02:18.717Z,1001.31
2023-02-24T07:03:19.235Z,1001.31
2023-02-24T07:04:18.790Z,1001.32
2023-02-24T07:05:18.734Z,1001.29
2023-02-24T07:06:18.742Z,1001.34
2023-02-24T07:07:18.752Z,1001.24
2023-02-24T07:08:18.768Z,1001.29
2023-02-24T07:09:18.791Z,1001.26
2023-02-24T07:10:18.785Z,1001.22
2023-02-24T07:11:19.078Z,1001.24
2023-02-24T07:12:18.804Z,1001.23
2023-02-24T07:13:18.817Z,1001.22
2023-02-24T07:14:18.831Z,1001.18
2023-02-24T07:15:18.839Z,1001.18
2023-02-24T07:16:18.864Z,1001.21
2023-02-24T07:17:18.855Z,1001.21
2023-02-24T07:18:18.867Z,1001.18
2023-02-24T07:19:18.868Z,1001.19
2023-02-24T07:20:18.882Z,1001.20
2023-02-24T07:21:19.118Z,1001.15
2023-02-24T07:22:18.895Z,1001.17
2023-02-24T07:23:18.915Z,1001.08
2023-02-24T07:24:18.917Z,1001.14
2023-02-24T07:25:18.926Z,1001.11
2023-02-24T07:26:18.935Z,1001.11
2023-02-24T07:27:18.944Z,1001.10
2023-02-24T07:28:18.961Z,1001.11
2023-02-24T07:29:18.963Z,1001.09
2023-02-24T07:30:18.977Z,1001.06
2023-02-24T07:31:19.223Z,1001.03
2023-02-24T07:32:19.048Z,1001.03
2023-02-24T07:33:19.012Z,1000.95
2023-02-24T07:34:19.031Z,1001.02
2023-02-24T07:35:19.030Z,1000.96
2023-02-24T07:36:19.038Z,1000.98
2023-02-24T07:37:19.053Z,1000.93
2023-02-24T07:38:19.052Z,1000.92
2023-02-24T07:39:19.070Z,1000.93
2023-02-24T07:40:19.075Z,1000.91
2023-02-24T07:41:19.344Z,1000.89
2023-02-24T07:42:19.090Z,1000.83
2023-02-24T07:43:19.096Z,1000.85
2023-02-24T07:44:19.126Z,1000.83
2023-02-24T07:45:19.157Z,1000.84
2023-02-24T07:46:19.185Z,1000.83
2023-02-24T07:47:19.136Z,1000.83
2023-02-24T07:48:19.147Z,1000.81
2023-02-24T07:49:19.155Z,1000.83
2023-02-24T07:50:19.188Z,1000.76
2023-02-24T07:51:19.341Z,1000.74
2023-02-24T07:52:19.185Z,1000.73
2023-02-24T07:53:19.204Z,1000.70
2023-02-24T07:54:19.204Z,1000.63
2023-02-24T07:55:19.225Z,1000.64
2023-02-24T07:56:19.224Z,1000.58
2023-02-24T07:57:19.233Z,1000.58
2023-02-24T07:58:19.254Z,1000.57
2023-02-24T07:59:19.264Z,1000.59
2023-02-24T08:00:19.272Z,1000.54
2023-02-24T08:01:19.612Z,1000.55
2023-02-24T08:02:19.305Z,1000.54
2023-02-24T08:03:19.293Z,1000.51
2023-02-24T08:04:19.304Z,1000.48
2023-02-24T08:05:19.341Z,1000.50
2023-02-24T08:06:19.323Z,1000.41
2023-02-24T08:07:19.347Z,1000.41
2023-02-24T08:08:19.347Z,1000.40
2023-02-24T08:09:19.368Z,1000.37
2023-02-24T08:10:19.366Z,1000.36
2023-02-24T08:11:19.604Z,1000.29
2023-02-24T08:12:19.411Z,1000.30
2023-02-24T08:13:19.394Z,1000.27
2023-02-24T08:14:19.410Z,1000.28
2023-02-24T08:15:19.442Z,1000.24
2023-02-24T08:16:19.449Z,1000.18
2023-02-24T08:17:19.438Z,1000.18
2023-02-24T08:18:19.451Z,1000.18
2023-02-24T08:19:19.463Z,1000.16
2023-02-24T08:20:19.475Z,1000.11
2023-02-24T08:21:19.688Z,1000.13
2023-02-24T08:22:19.670Z,1000.18
2023-02-24T08:23:19.504Z,1000.10
2023-02-24T08:24:19.518Z,1000.10
2023-02-24T08:25:19.526Z,1000.09
2023-02-24T08:26:19.568Z,1000.06
2023-02-24T08:27:19.545Z,1000.06
2023-02-24T08:28:19.559Z,1000.04
2023-02-24T08:29:19.570Z,1000.02
2023-02-24T08:30:19.593Z,999.96
2023-02-24T08:31:19.908Z,999.94
2023-02-24T08:32:20.809Z,1000.00
2023-02-24T08:33:19.617Z,999.96
2023-02-24T08:34:19.617Z,999.98
2023-02-24T08:35:19.633Z,999.95
2023-02-24T08:36:19.638Z,999.86
2023-02-24T08:37:19.648Z,999.89
2023-02-24T08:38:19.662Z,999.90
2023-02-24T08:39:19.670Z,999.87
2023-02-24T08:40:19.684Z,999.86
2023-02-24T08:41:20.232Z,999.83
2023-02-24T08:42:19.704Z,999.84
2023-02-24T08:43:19.712Z,999.83
2023-02-24T08:44:19.724Z,999.84
2023-02-24T08:45:19.740Z,999.84
2023-02-24T08:46:19.807Z,999.81
2023-02-24T08:47:19.761Z,999.81
2023-02-24T08:48:19.771Z,999.78
2023-02-24T08:49:19.784Z,999.77
2023-02-24T08:50:19.792Z,999.74
2023-02-24T08:51:20.118Z,999.73
2023-02-24T08:52:19.823Z,999.74
2023-02-24T08:53:19.832Z,999.70
2023-02-24T08:54:19.839Z,999.68
2023-02-24T08:55:19.849Z,999.68
2023-02-24T08:56:20.098Z,999.62
2023-02-24T08:57:19.879Z,999.60
2023-02-24T08:58:19.889Z,999.61
2023-02-24T08:59:19.898Z,999.62
2023-02-24T09:00:19.910Z,999.55
2023-02-24T09:01:20.321Z,999.52
2023-02-24T09:02:19.934Z,999.53
2023-02-24T09:03:19.944Z,999.49
2023-02-24T09:04:20.018Z,999.49
2023-02-24T09:05:19.967Z,999.51
2023-02-24T09:06:19.987Z,999.41
2023-02-24T09:07:19.992Z,999.40
2023-02-24T09:08:20.005Z,999.39
2023-02-24T09:09:20.022Z,999.33
2023-02-24T09:10:20.041Z,999.32
2023-02-24T09:11:20.375Z,999.35
2023-02-24T09:12:20.053Z,999.32
2023-02-24T09:13:20.064Z,999.27
2023-02-24T09:14:28.454Z,999.29
2023-02-24T09:15:20.087Z,999.28
2023-02-24T09:16:20.172Z,999.32
2023-02-24T09:17:20.114Z,999.25
2023-02-24T09:18:20.121Z,999.25
2023-02-24T09:19:20.159Z,999.23
2023-02-24T09:20:20.145Z,999.23
2023-02-24T09:21:20.389Z,999.24
2023-02-24T09:22:21.534Z,999.28
2023-02-24T09:23:20.374Z,999.22
2023-02-24T09:24:20.196Z,999.18
2023-02-24T09:25:20.205Z,999.13
2023-02-24T09:26:20.221Z,999.15
2023-02-24T09:27:20.228Z,999.15
2023-02-24T09:28:20.327Z,999.15
2023-02-24T09:29:20.252Z,999.11
2023-02-24T09:30:20.267Z,999.15
2023-02-24T09:31:20.757Z,999.11
2023-02-24T09:32:20.374Z,999.05
2023-02-24T09:33:20.301Z,999.10
2023-02-24T09:34:20.342Z,999.04
2023-02-24T09:35:20.321Z,999.01
2023-02-24T09:36:20.615Z,999.07
2023-02-24T09:37:20.358Z,999.06
2023-02-24T09:38:20.357Z,999.01
2023-02-24T09:39:20.388Z,999.00
2023-02-24T09:40:20.385Z,999.00
2023-02-24T09:41:20.394Z,999.01
2023-02-24T09:42:20.408Z,998.93
2023-02-24T09:43:20.423Z,998.93
2023-02-24T09:44:20.426Z,998.98
2023-02-24T09:45:20.476Z,998.87
2023-02-24T09:46:20.528Z,998.83
2023-02-24T09:47:20.467Z,998.83
2023-02-24T09:48:20.474Z,998.85
2023-02-24T09:49:20.486Z,998.82
2023-02-24T09:50:46.893Z,998.87
2023-02-24T09:51:20.712Z,998.82
2023-02-24T09:52:20.524Z,998.77
2023-02-24T09:53:20.533Z,998.79
2023-02-24T09:54:20.542Z,998.79
2023-02-24T09:55:20.557Z,998.71
2023-02-24T09:56:20.608Z,998.68
2023-02-24T09:57:20.639Z,998.76
2023-02-24T09:58:20.612Z,998.72
2023-02-24T09:59:20.601Z,998.71
2023-02-24T10:00:20.614Z,998.68
2023-02-24T10:01:20.944Z,998.66
2023-02-24T10:02:20.707Z,998.64
2023-02-24T10:03:20.653Z,998.68
2023-02-24T10:04:21.676Z,998.65
2023-02-24T10:05:20.675Z,998.69
2023-02-24T10:06:20.968Z,998.61
2023-02-24T10:07:20.698Z,998.65
2023-02-24T10:08:20.710Z,998.65
2023-02-24T10:09:20.725Z,998.61
2023-02-24T10:10:20.736Z,998.60
2023-02-24T10:11:21.039Z,998.56
2023-02-24T10:12:20.759Z,998.56
2023-02-24T10:13:20.797Z,998.56
2023-02-24T10:14:20.786Z,998.54
2023-02-24T10:15:20.827Z,998.43
2023-02-24T10:16:20.821Z,998.45
2023-02-24T10:17:22.594Z,998.48
2023-02-24T10:18:20.831Z,998.44
2023-02-24T10:19:20.847Z,998.45
2023-02-24T10:20:20.884Z,998.45
2023-02-24T10:21:21.128Z,998.44
2023-02-24T10:22:20.880Z,998.36
2023-02-24T10:23:20.894Z,998.42
2023-02-24T10:24:20.906Z,998.37
2023-02-24T10:25:21.692Z,998.30
2023-02-24T10:26:20.936Z,998.32
2023-02-24T10:27:20.943Z,998.32
2023-02-24T10:28:20.953Z,998.25
2023-02-24T10:29:20.966Z,998.29
2023-02-24T10:30:21.082Z,998.29
2023-02-24T10:31:21.373Z,998.27
2023-02-24T10:32:21.080Z,998.33
2023-02-24T10:33:21.014Z,998.24
2023-02-24T10:34:23.101Z,998.23
2023-02-24T10:35:21.040Z,998.19
2023-02-24T10:36:21.104Z,998.20
2023-02-24T10:37:28.293Z,998.21
2023-02-24T10:38:21.083Z,998.20
2023-02-24T10:39:21.094Z,998.01
2023-02-24T10:40:21.101Z,998.09
2023-02-24T10:41:21.355Z,998.06
2023-02-24T10:42:21.178Z,998.03
2023-02-24T10:43:21.195Z,998.00
2023-02-24T10:44:21.160Z,998.01
2023-02-24T10:45:22.492Z,998.02
2023-02-24T10:46:26.356Z,998.03
2023-02-24T10:47:21.186Z,998.01
2023-02-24T10:48:24.493Z,997.99
2023-02-24T10:49:21.217Z,997.92
2023-02-24T10:50:21.226Z,997.87
2023-02-24T10:51:21.622Z,997.93
2023-02-24T10:52:21.250Z,997.90
2023-02-24T10:53:21.267Z,997.90
2023-02-24T10:54:21.277Z,997.89
2023-02-24T10:55:21.287Z,997.89
2023-02-24T10:56:21.589Z,997.86
2023-02-24T10:57:21.316Z,997.85
2023-02-24T10:58:21.340Z,997.80
2023-02-24T10:59:21.369Z,997.84
2023-02-24T11:00:21.485Z,997.75
2023-02-24T11:01:21.637Z,997.78
2023-02-24T11:02:21.405Z,997.80
2023-02-24T11:03:32.401Z,997.76
2023-02-24T11:04:21.406Z,997.76
2023-02-24T11:05:21.404Z,997.73
2023-02-24T11:06:21.429Z,997.75
2023-02-24T11:07:21.436Z,997.73
2023-02-24T11:08:21.443Z,997.69
2023-02-24T11:09:21.459Z,997.77
2023-02-24T11:10:21.469Z,997.63
2023-02-24T11:11:21.627Z,997.70
2023-02-24T11:12:21.494Z,997.78
2023-02-24T11:13:21.499Z,997.68
2023-02-24T11:14:21.515Z,997.75
2023-02-24T11:15:21.526Z,997.72
2023-02-24T11:16:21.604Z,997.69
2023-02-24T11:17:21.548Z,997.63
2023-02-24T11:18:21.567Z,997.61
2023-02-24T11:19:21.567Z,997.59
2023-02-24T11:20:21.587Z,997.66
2023-02-24T11:21:21.900Z,997.61
2023-02-24T11:22:21.602Z,997.61
2023-02-24T11:23:21.629Z,997.56
2023-02-24T11:24:21.623Z,997.49
2023-02-24T11:25:21.635Z,997.51
2023-02-24T11:26:21.650Z,997.52
2023-02-24T11:27:21.661Z,997.49
2023-02-24T11:28:21.677Z,997.51
2023-02-24T11:29:21.680Z,997.50
2023-02-24T11:30:21.707Z,997.47
2023-02-24T11:31:22.054Z,997.45
2023-02-24T11:32:21.774Z,997.49
2023-02-24T11:33:21.723Z,997.36
2023-02-24T11:34:21.740Z,997.32
2023-02-24T11:35:21.743Z,997.34
2023-02-24T11:36:21.755Z,997.27
2023-02-24T11:37:21.767Z,997.29
2023-02-24T11:38:21.782Z,997.28
2023-02-24T11:39:21.883Z,997.30
2023-02-24T11:40:21.797Z,997.19
2023-02-24T11:41:22.183Z,997.20
2023-02-24T11:42:21.817Z,997.19
2023-02-24T11:43:21.829Z,997.14
2023-02-24T11:44:21.838Z,997.13
2023-02-24T11:45:21.846Z,997.11
2023-02-24T11:46:21.903Z,997.11
2023-02-24T11:47:21.871Z,997.05
2023-02-24T11:48:21.882Z,997.05
2023-02-24T11:49:21.889Z,997.03
2023-02-24T11:50:21.900Z,997.03
2023-02-24T11:51:22.161Z,996.99
2023-02-24T11:52:21.921Z,996.96
2023-02-24T11:53:21.934Z,996.90
2023-02-24T11:54:21.940Z,996.96
2023-02-24T11:55:21.949Z,996.94
2023-02-24T11:56:21.961Z,996.88
2023-02-24T11:57:21.977Z,996.90
2023-02-24T11:58:21.983Z,996.87
2023-02-24T11:59:22.293Z,996.87
2023-02-24T12:00:22.308Z,996.83
2023-02-24T12:01:22.285Z,996.82
2023-02-24T12:02:22.032Z,996.76
2023-02-24T12:03:22.030Z,996.74
2023-02-24T12:04:22.043Z,996.74
2023-02-24T12:05:22.272Z,996.69
2023-02-24T12:06:22.070Z,996.71
2023-02-24T12:07:22.067Z,996.69
2023-02-24T12:08:22.082Z,996.61
2023-02-24T12:09:22.366Z,996.61
2023-02-24T12:10:22.171Z,996.58
2023-02-24T12:11:22.331Z,996.51
2023-02-24T12:12:22.348Z,996.54